Time;durP1;ratioP1;P1;durP2;ratioP2;P2;SDS_P1;SDS_P2;PMS_P1;PMS_P2;Temp;Humidity;BMP_temperature;BMP_pressure;BME280_temperature;BME280_humidity;BME280_pressure;Samples;Min_cycle;Max_cycle;Signal;HPM_P1;HPM_P2
2022/04/19 00:00:43;;;;;;;0.70;0.70;;;;;;;6.89;66.92;91738.84;6186936;23;20527;-74
2022/04/19 00:03:11;;;;;;;0.80;0.80;;;;;;;7.13;65.94;91774.66;6186111;23;20234;-74
2022/04/19 00:05:41;;;;;;;0.60;0.60;;;;;;;6.59;66.30;91685.75;6186597;23;20574;-74
2022/04/19 00:08:10;;;;;;;0.90;0.90;;;;;;;7.13;66.45;91763.78;6186248;23;20558;-75
2022/04/19 00:10:38;;;;;;;0.77;0.77;;;;;;;6.43;66.38;91666.41;6186175;23;20480;-75
2022/04/19 00:13:06;;;;;;;0.70;0.70;;;;;;;6.80;66.46;91718.34;6185814;23;20190;-74
2022/04/19 00:15:34;;;;;;;0.83;0.83;;;;;;;6.72;66.53;91720.38;6186499;23;20418;-74
2022/04/19 00:18:05;;;;;;;1.03;1.03;;;;;;;7.02;66.76;91746.69;6186288;23;20574;-75
2022/04/19 00:20:33;;;;;;;0.70;0.70;;;;;;;6.46;66.84;91666.28;6185921;23;20436;-75
2022/04/19 00:23:03;;;;;;;0.90;0.90;;;;;;;6.93;66.10;91757.13;6185858;23;20162;-74
2022/04/19 00:25:31;;;;;;;0.60;0.60;;;;;;;6.58;65.78;91711.75;6186111;23;20625;-74
2022/04/19 00:27:58;;;;;;;0.43;0.43;;;;;;;6.44;66.85;91658.81;6187388;23;20527;-74
2022/04/19 00:30:26;;;;;;;0.80;0.80;;;;;;;6.70;66.60;91717.94;6186952;23;20557;-74
2022/04/19 00:32:53;;;;;;;0.60;0.60;;;;;;;6.26;66.71;91677.16;6188151;23;20229;-74
2022/04/19 00:35:23;;;;;;;0.80;0.80;;;;;;;6.70;66.73;91727.16;6185506;23;20192;-74
2022/04/19 00:37:51;;;;;;;0.80;0.80;;;;;;;6.47;67.07;91718.91;6185203;23;20492;-74
2022/04/19 00:40:19;;;;;;;0.80;0.80;;;;;;;6.11;66.58;91651.03;6185481;23;20511;-74
2022/04/19 00:42:47;;;;;;;1.00;1.00;;;;;;;6.45;67.36;91694.75;6186821;23;20157;-74
2022/04/19 00:45:15;;;;;;;1.00;1.00;;;;;;;6.82;67.30;91742.50;6185431;23;20512;-74
2022/04/19 00:47:42;;;;;;;0.80;0.80;;;;;;;6.28;67.03;91677.09;6186809;23;20409;-74
2022/04/19 00:50:11;;;;;;;0.70;0.70;;;;;;;6.30;67.41;91688.69;6185077;23;20565;-74
2022/04/19 00:52:40;;;;;;;0.87;0.87;;;;;;;6.60;68.49;91729.22;6185089;23;20523;-74
2022/04/19 00:55:09;;;;;;;0.70;0.70;;;;;;;6.53;67.48;91723.69;6185558;23;20531;-74
2022/04/19 00:57:38;;;;;;;0.80;0.80;;;;;;;6.70;66.90;91733.00;6185542;23;20281;-74
2022/04/19 01:00:08;;;;;;;0.87;0.87;;;;;;;6.20;66.49;91642.28;6184937;23;20528;-74
2022/04/19 01:02:37;;;;;;;0.50;0.50;;;;;;;6.23;67.68;91632.16;6184844;23;20518;-74
2022/04/19 01:05:05;;;;;;;0.70;0.70;;;;;;;6.56;67.41;91690.91;6186765;23;20420;-74
2022/04/19 01:07:33;;;;;;;0.63;0.63;;;;;;;6.71;67.28;91728.78;6185967;23;20419;-74
2022/04/19 01:10:03;;;;;;;1.17;1.17;;;;;;;6.51;66.69;91692.81;6185722;23;20440;-74
2022/04/19 01:15:16;;;;;;;0.97;0.97;;;;;;;6.64;67.01;91733.25;6186631;23;20514;-74
2022/04/19 01:17:45;;;;;;;0.80;0.80;;;;;;;6.14;67.09;91663.41;6184961;23;20445;-74
2022/04/19 01:20:13;;;;;;;0.70;0.70;;;;;;;6.42;66.65;91687.38;6185273;23;20228;-74
2022/04/19 01:22:43;;;;;;;0.93;0.93;;;;;;;6.74;66.82;91728.66;6184800;23;20423;-74
2022/04/19 01:25:12;;;;;;;0.70;0.70;;;;;;;6.81;65.93;91727.53;6186686;23;20170;-74
2022/04/19 01:27:39;;;;;;;0.50;0.50;;;;;;;6.05;66.67;91642.94;6185134;23;20437;-74
2022/04/19 01:30:08;;;;;;;0.80;0.80;;;;;;;6.28;67.76;91675.41;6186040;23;20432;-74
2022/04/19 01:32:36;;;;;;;0.60;0.60;;;;;;;6.27;67.84;91698.84;6185113;23;20511;-74
2022/04/19 01:35:09;;;;;;;0.50;0.50;;;;;;;6.32;67.74;91681.09;6187408;23;20554;-74
2022/04/19 01:37:37;;;;;;;0.73;0.73;;;;;;;5.98;68.98;91613.97;6186712;23;20451;-74
2022/04/19 01:40:19;;;;;;;1.30;1.20;;;;;;;6.53;67.67;91701.09;6185000;23;20668;-74
2022/04/19 01:42:52;;;;;;;0.90;0.90;;;;;;;6.25;66.94;91673.03;6184936;23;20162;-74
2022/04/19 01:45:21;;;;;;;0.83;0.83;;;;;;;6.23;67.85;91678.09;6184697;23;20164;-74
2022/04/19 01:47:48;;;;;;;0.90;0.90;;;;;;;6.12;67.85;91666.88;6185003;23;20465;-74
2022/04/19 01:50:16;;;;;;;0.70;0.70;;;;;;;6.35;68.26;91689.31;6187140;23;20514;-74
2022/04/19 01:52:45;;;;;;;0.83;0.83;;;;;;;6.00;68.06;91607.22;6184996;23;20461;-74
2022/04/19 01:55:15;;;;;;;0.80;0.80;;;;;;;6.37;68.28;91680.03;6184926;23;20500;-74
2022/04/19 01:57:43;;;;;;;1.00;1.00;;;;;;;6.44;68.22;91703.16;6184920;23;20238;-74
2022/04/19 02:00:12;;;;;;;0.70;0.70;;;;;;;6.57;68.13;91710.13;6186673;23;20620;-74
2022/04/19 02:02:40;;;;;;;0.80;0.80;;;;;;;6.32;69.55;91671.88;6185413;23;20507;-74
2022/04/19 02:05:10;;;;;;;0.90;0.90;;;;;;;6.68;68.89;91706.31;6186513;23;20150;-74
2022/04/19 02:07:39;;;;;;;0.80;0.80;;;;;;;6.52;68.40;91681.91;6184951;23;20550;-74
2022/04/19 02:10:08;;;;;;;1.00;1.00;;;;;;;6.30;66.65;91643.56;6185810;23;20443;-74
2022/04/19 02:12:38;;;;;;;0.77;0.77;;;;;;;6.13;67.07;91616.69;6187567;23;20522;-74
2022/04/19 02:15:06;;;;;;;0.90;0.90;;;;;;;6.48;67.58;91677.88;6186917;23;20593;-74
2022/04/19 02:17:34;;;;;;;0.93;0.93;;;;;;;6.07;67.91;91618.63;6187250;23;20158;-74
2022/04/19 02:20:04;;;;;;;0.80;0.80;;;;;;;6.60;68.98;91704.94;6186835;23;20299;-74
2022/04/19 02:22:31;;;;;;;0.93;0.93;;;;;;;6.52;68.19;91706.16;6186852;23;20534;-74
2022/04/19 02:24:59;;;;;;;0.87;0.87;;;;;;;6.31;67.31;91692.03;6186519;23;20409;-74
2022/04/19 02:27:27;;;;;;;0.83;0.70;;;;;;;6.54;67.91;91710.22;6188676;23;20253;-74
2022/04/19 02:29:56;;;;;;;0.57;0.57;;;;;;;6.53;67.91;91696.06;6187408;23;20519;-74
2022/04/19 02:32:23;;;;;;;0.83;0.83;;;;;;;6.37;66.80;91682.53;6186870;23;20525;-74
2022/04/19 02:34:51;;;;;;;1.37;1.27;;;;;;;6.41;67.58;91701.59;6188001;23;20176;-74
2022/04/19 02:37:18;;;;;;;0.80;0.80;;;;;;;6.37;67.74;91704.28;6188171;23;20436;-74
2022/04/19 02:39:48;;;;;;;0.70;0.70;;;;;;;6.27;68.47;91672.94;6186796;23;20518;-74
2022/04/19 02:42:15;;;;;;;0.80;0.77;;;;;;;5.97;68.17;91649.97;6188131;23;20547;-74
2022/04/19 02:44:43;;;;;;;0.80;0.80;;;;;;;5.88;68.26;91641.13;6186900;23;20483;-74
2022/04/19 02:47:15;;;;;;;0.80;0.80;;;;;;;6.05;68.21;91645.44;6186156;23;20435;-74
2022/04/19 02:49:44;;;;;;;0.70;0.70;;;;;;;6.14;68.28;91685.19;6186585;23;20244;-74
2022/04/19 02:52:12;;;;;;;0.80;0.80;;;;;;;6.25;68.46;91703.91;6186626;23;20575;-74
2022/04/19 02:54:39;;;;;;;0.80;0.80;;;;;;;6.42;68.56;91713.25;6186920;23;20509;-74
2022/04/19 02:57:06;;;;;;;0.93;0.93;;;;;;;6.44;68.28;91715.69;6187131;23;20545;-74
2022/04/19 02:59:34;;;;;;;0.80;0.80;;;;;;;6.51;67.67;91702.03;6186454;23;20625;-74
2022/04/19 03:02:01;;;;;;;1.90;1.80;;;;;;;6.38;67.61;91704.22;6186398;23;20450;-74
2022/04/19 03:04:30;;;;;;;1.83;1.83;;;;;;;6.46;67.21;91684.66;6186203;23;20468;-74
2022/04/19 03:06:57;;;;;;;2.30;2.20;;;;;;;6.21;68.26;91679.84;6186692;23;20189;-74
2022/04/19 03:09:25;;;;;;;1.80;1.70;;;;;;;6.09;68.47;91670.31;6186448;23;20419;-74
2022/04/19 03:11:52;;;;;;;2.47;2.37;;;;;;;5.97;68.95;91655.00;6186837;23;20478;-74
2022/04/19 03:14:19;;;;;;;1.60;1.60;;;;;;;6.25;68.68;91706.41;6186289;23;20555;-74
2022/04/19 03:16:46;;;;;;;2.00;1.37;;;;;;;5.98;69.14;91646.56;6187241;23;20188;-73
2022/04/19 03:19:14;;;;;;;1.13;1.13;;;;;;;6.06;69.14;91662.13;6186461;23;20531;-73
2022/04/19 03:21:43;;;;;;;3.10;1.37;;;;;;;5.94;69.46;91613.31;6186246;23;20216;-73
2022/04/19 03:29:39;;;;;;;1.47;1.43;;;;;;;6.08;68.11;91650.34;6186069;23;20376;-74
2022/04/19 03:32:09;;;;;;;0.90;0.90;;;;;;;5.89;68.15;91619.38;6186530;23;20399;-74
2022/04/19 03:34:39;;;;;;;0.90;0.90;;;;;;;6.18;68.09;91652.41;6186034;23;20565;-74
2022/04/19 03:37:08;;;;;;;1.00;1.00;;;;;;;6.42;68.05;91690.66;6186123;23;20482;-74
2022/04/19 03:39:35;;;;;;;0.80;0.80;;;;;;;6.09;67.40;91659.47;6186997;23;20211;-73
2022/04/19 03:42:03;;;;;;;1.20;1.20;;;;;;;5.98;67.58;91659.09;6186206;23;20518;-74
2022/04/19 03:44:31;;;;;;;1.23;1.23;;;;;;;6.33;67.59;91711.13;6186089;23;20412;-73
2022/04/19 03:47:10;;;;;;;2.00;1.90;;;;;;;5.83;67.82;91636.28;6186171;23;20167;-73
2022/04/19 03:49:38;;;;;;;2.27;2.17;;;;;;;6.06;69.24;91677.97;6186218;23;20484;-73
2022/04/19 03:52:08;;;;;;;1.93;1.83;;;;;;;6.19;69.29;91693.34;6186048;23;20469;-73
2022/04/19 03:54:37;;;;;;;2.23;2.13;;;;;;;5.70;70.91;91651.84;6185825;23;20178;-73
2022/04/19 03:57:07;;;;;;;2.67;2.30;;;;;;;6.05;70.75;91710.63;6186380;23;20241;-73
2022/04/19 03:59:37;;;;;;;2.77;2.67;;;;;;;5.79;70.45;91652.31;6185828;23;20616;-73
2022/04/19 04:02:05;;;;;;;3.80;3.50;;;;;;;6.18;70.80;91719.28;6185735;23;20527;-74
2022/04/19 04:04:34;;;;;;;3.63;3.43;;;;;;;6.14;70.79;91725.31;6186098;23;20256;-73
2022/04/19 04:07:02;;;;;;;6.73;5.93;;;;;;;6.26;70.80;91729.81;6186411;23;20519;-73
2022/04/19 04:09:35;;;;;;;7.87;6.07;;;;;;;5.95;71.10;91682.63;6187124;23;20463;-73
2022/04/19 04:12:04;;;;;;;80.33;34.60;;;;;;;5.86;70.90;91692.19;6187160;23;20546;-73
2022/04/19 04:14:32;;;;;;;10.80;9.20;;;;;;;5.68;71.63;91678.69;6187167;23;20514;-73
2022/04/19 04:16:59;;;;;;;18.07;10.23;;;;;;;6.15;71.49;91744.47;6185455;23;20259;-73
2022/04/19 04:19:27;;;;;;;5.60;3.47;;;;;;;5.74;71.75;91695.97;6186069;23;20451;-73
2022/04/19 04:21:54;;;;;;;7.50;6.60;;;;;;;5.67;71.67;91680.38;6185761;23;20525;-73
2022/04/19 04:24:21;;;;;;;13.57;9.97;;;;;;;6.09;71.93;91720.47;6185464;23;20420;-74
2022/04/19 04:26:50;;;;;;;5.20;4.90;;;;;;;6.24;71.39;91702.31;6185874;23;20217;-72
2022/04/19 04:29:17;;;;;;;4.77;4.37;;;;;;;6.59;71.27;91742.69;6185185;23;20400;-72
2022/04/19 04:34:20;;;;;;;11.90;9.43;;;;;;;6.44;69.92;91706.47;6211661;22;20212;-74
2022/04/19 04:36:47;;;;;;;20.03;13.77;;;;;;;6.30;69.89;91685.38;6215197;22;20372;-74
2022/04/19 04:39:15;;;;;;;5.00;4.57;;;;;;;6.63;69.96;91732.44;6215751;22;20461;-74
2022/04/19 04:41:45;;;;;;;14.57;8.40;;;;;;;6.80;69.64;91743.47;6215522;22;20154;-74
2022/04/19 04:44:14;;;;;;;90.20;32.60;;;;;;;7.00;69.85;91749.25;6215720;22;20212;-74
2022/04/19 04:49:39;;;;;;;1.30;1.20;;;;;;;6.75;69.43;91746.16;6189844;22;20587;-74
2022/04/19 04:52:07;;;;;;;3.77;3.57;;;;;;;6.49;70.05;91701.25;6216145;22;20463;-74
2022/04/19 04:54:35;;;;;;;3.57;3.30;;;;;;;6.80;69.38;91748.47;6214973;22;20189;-75
2022/04/19 04:57:04;;;;;;;2.60;2.50;;;;;;;6.58;70.23;91723.47;6217066;22;20526;-75
2022/04/19 04:59:33;;;;;;;3.07;2.97;;;;;;;7.03;69.60;91749.13;6215340;22;20630;-74
2022/04/19 05:02:01;;;;;;;5.53;5.13;;;;;;;6.59;69.63;91682.47;6215305;22;20468;-74
2022/04/19 05:04:29;;;;;;;8.30;5.17;;;;;;;6.90;68.35;91768.09;6215807;22;20446;-75
2022/04/19 05:06:56;;;;;;;6.80;4.43;;;;;;;6.75;67.94;91727.78;6215132;22;20410;-76
2022/04/19 05:09:24;;;;;;;30.20;19.57;;;;;;;7.07;66.91;91762.34;6215587;22;20473;-75
2022/04/19 05:11:52;;;;;;;16.37;8.87;;;;;;;6.97;66.56;91773.69;6215294;22;20556;-75
2022/04/19 05:14:20;;;;;;;4.73;4.43;;;;;;;7.07;66.68;91772.41;6215488;22;20161;-74
2022/04/19 05:16:49;;;;;;;15.80;11.30;;;;;;;7.02;67.61;91759.22;6214441;22;20439;-75
2022/04/19 05:19:16;;;;;;;14.77;9.73;;;;;;;6.71;67.67;91762.22;6215304;22;20177;-77
2022/04/19 05:21:43;;;;;;;5.10;4.70;;;;;;;6.70;67.33;91768.13;6215509;22;20510;-75
2022/04/19 05:24:11;;;;;;;4.67;4.23;;;;;;;6.82;68.24;91761.75;6215121;22;20404;-75
2022/04/19 05:26:38;;;;;;;6.00;3.90;;;;;;;6.61;67.93;91759.28;6215013;22;20532;-74
2022/04/19 05:29:05;;;;;;;14.07;8.20;;;;;;;6.74;67.63;91769.63;6215108;22;20411;-75
2022/04/19 05:31:33;;;;;;;5.53;5.13;;;;;;;6.64;68.59;91763.38;6215149;22;20518;-75
2022/04/19 05:34:01;;;;;;;6.00;5.60;;;;;;;6.77;68.91;91763.66;6214539;22;20416;-73
2022/04/19 05:36:29;;;;;;;13.10;7.97;;;;;;;6.74;68.03;91773.84;6215127;22;20528;-75
2022/04/19 05:39:11;;;;;;;24.80;11.13;;;;;;;7.06;67.19;91779.13;6215065;22;20157;-75
2022/04/19 05:41:40;;;;;;;18.67;9.00;;;;;;;6.63;68.12;91737.47;6214646;22;20482;-74
2022/04/19 05:44:08;;;;;;;7.57;4.60;;;;;;;7.02;68.40;91780.13;6213833;22;20596;-74
2022/04/19 05:46:36;;;;;;;13.40;4.50;;;;;;;7.04;68.93;91777.56;6216482;22;20609;-74
2022/04/19 05:49:05;;;;;;;7.53;6.83;;;;;;;7.15;67.17;91794.69;6216724;22;20154;-73
2022/04/19 05:51:33;;;;;;;3.80;3.60;;;;;;;7.00;67.47;91781.06;6217304;22;20526;-74
2022/04/19 05:54:00;;;;;;;6.20;5.60;;;;;;;6.98;67.58;91776.13;6217062;22;20517;-74
2022/04/19 05:56:28;;;;;;;5.07;4.67;;;;;;;7.05;67.32;91794.25;6216879;22;20416;-74
2022/04/19 05:58:55;;;;;;;8.77;8.07;;;;;;;6.97;68.15;91776.19;6217222;22;20573;-74
2022/04/19 06:01:22;;;;;;;11.30;7.67;;;;;;;7.15;68.02;91784.63;6217261;22;20472;-74
2022/04/19 06:06:35;;;;;;;6.43;5.93;;;;;;;7.25;66.30;91794.22;6217351;22;20173;-74
2022/04/19 06:09:03;;;;;;;6.87;3.90;;;;;;;7.21;65.02;91817.03;6216989;22;20422;-74
2022/04/19 06:11:30;;;;;;;13.97;10.93;;;;;;;7.30;65.61;91791.50;6216818;22;20184;-74
2022/04/19 06:13:57;;;;;;;10.43;8.33;;;;;;;7.30;65.81;91809.91;6216409;22;20470;-75
2022/04/19 06:16:25;;;;;;;7.70;6.47;;;;;;;7.49;64.14;91818.25;6216142;22;20420;-74
2022/04/19 06:18:52;;;;;;;4.87;4.43;;;;;;;7.56;63.70;91825.50;6216679;22;20607;-74
2022/04/19 06:21:19;;;;;;;2.83;2.60;;;;;;;7.42;63.95;91786.75;6216619;22;20609;-75
2022/04/19 06:23:48;;;;;;;2.60;2.50;;;;;;;7.90;64.50;91823.13;6216458;22;20561;-74
2022/04/19 06:26:15;;;;;;;9.87;7.23;;;;;;;7.77;63.51;91825.41;6215575;22;20571;-76
2022/04/19 06:28:43;;;;;;;9.47;6.27;;;;;;;7.75;62.22;91832.19;6216469;22;20399;-74
2022/04/19 06:31:14;;;;;;;1.73;1.73;;;;;;;7.85;61.76;91843.47;6216756;22;20233;-73
2022/04/19 06:33:41;;;;;;;24.03;10.80;;;;;;;7.86;62.74;91819.13;6217101;22;20201;-74
2022/04/19 06:36:09;;;;;;;5.60;5.07;;;;;;;7.67;63.27;91825.84;6216658;22;20510;-74
2022/04/19 06:38:36;;;;;;;21.73;9.87;;;;;;;7.74;62.98;91830.56;6217303;22;20507;-74
2022/04/19 06:41:05;;;;;;;4.70;4.33;;;;;;;7.89;61.97;91831.53;6216838;22;20621;-73
2022/04/19 06:43:32;;;;;;;5.70;4.33;;;;;;;7.82;61.63;91837.75;6216872;22;20490;-74
2022/04/19 06:45:59;;;;;;;5.53;5.17;;;;;;;7.78;63.67;91821.16;6216849;22;20514;-73
2022/04/19 06:48:29;;;;;;;2.83;2.63;;;;;;;7.73;61.84;91830.63;6216909;22;20176;-73
2022/04/19 06:50:56;;;;;;;2.83;2.63;;;;;;;7.55;61.95;91829.72;6216751;22;20178;-73
2022/04/19 06:53:29;;;;;;;3.03;2.90;;;;;;;7.76;61.39;91827.97;6216929;22;20412;-74
2022/04/19 06:55:57;;;;;;;2.43;2.23;;;;;;;7.90;59.65;91853.31;6215539;22;20386;-74
2022/04/19 06:58:26;;;;;;;4.40;3.33;;;;;;;7.90;60.58;91816.41;6215858;22;20434;-74
2022/04/19 07:00:53;;;;;;;3.63;3.43;;;;;;;7.93;60.21;91842.31;6216537;22;20653;-74
2022/04/19 07:03:24;;;;;;;5.93;5.47;;;;;;;7.94;62.22;91807.03;6216607;22;20395;-74
2022/04/19 07:05:51;;;;;;;6.63;5.73;;;;;;;8.13;59.75;91844.72;6216427;22;20464;-75
2022/04/19 07:08:18;;;;;;;2.37;2.27;;;;;;;8.21;57.68;91871.16;6216494;22;20388;-74
2022/04/19 07:10:46;;;;;;;5.07;2.93;;;;;;;8.05;57.80;91849.28;6216287;22;20545;-75
2022/04/19 07:13:13;;;;;;;4.70;4.30;;;;;;;7.98;60.03;91840.41;6215680;22;20402;-75
2022/04/19 07:15:42;;;;;;;8.83;5.53;;;;;;;8.23;61.03;91833.34;6216437;22;20411;-74
2022/04/19 07:18:09;;;;;;;5.63;5.13;;;;;;;8.14;60.61;91829.56;6216275;22;20534;-75
2022/04/19 07:28:50;;;;;;;2.17;2.00;;;;;;;8.21;59.02;91860.28;6216206;22;20176;-74
2022/04/19 07:31:19;;;;;;;4.40;3.60;;;;;;;8.38;59.14;91837.69;6214234;22;20527;-75
2022/04/19 07:33:46;;;;;;;2.67;2.23;;;;;;;8.16;58.12;91859.69;6216255;22;20461;-75
2022/04/19 07:36:14;;;;;;;3.97;3.60;;;;;;;8.27;59.37;91843.22;6216315;22;20494;-75
2022/04/19 07:38:41;;;;;;;5.80;3.00;;;;;;;8.33;58.21;91854.72;6216506;22;20462;-75
2022/04/19 07:41:08;;;;;;;2.87;2.67;;;;;;;8.30;57.95;91863.22;6215872;22;20388;-75
2022/04/19 07:43:36;;;;;;;2.60;2.43;;;;;;;8.34;57.48;91865.59;6216132;22;20537;-75
2022/04/19 07:46:04;;;;;;;2.60;2.43;;;;;;;8.34;57.35;91846.25;6215549;22;20757;-75
2022/04/19 07:48:33;;;;;;;2.10;1.90;;;;;;;8.43;57.48;91829.94;6214860;22;20584;-75
2022/04/19 07:51:00;;;;;;;13.77;7.93;;;;;;;8.22;58.19;91784.75;6216084;22;20632;-75
2022/04/19 07:53:28;;;;;;;14.83;6.10;;;;;;;8.98;58.93;91849.03;6215100;22;20487;-75
2022/04/19 07:55:57;;;;;;;23.27;11.63;;;;;;;8.85;57.56;91860.59;6214947;22;20463;-76
2022/04/19 07:58:25;;;;;;;2.40;2.20;;;;;;;8.89;57.32;91863.81;6215575;22;20526;-75
2022/04/19 08:00:52;;;;;;;1.50;1.50;;;;;;;8.78;56.38;91839.13;6216205;22;20631;-76
2022/04/19 08:03:19;;;;;;;1.83;1.73;;;;;;;8.62;55.38;91856.66;6216035;22;20435;-76
2022/04/19 08:05:48;;;;;;;1.80;1.70;;;;;;;8.87;55.19;91825.28;6214830;22;20529;-75
2022/04/19 08:08:16;;;;;;;1.60;1.50;;;;;;;8.80;55.71;91882.66;6214483;22;20541;-76
2022/04/19 08:10:43;;;;;;;0.87;0.87;;;;;;;9.14;56.44;91870.06;6215782;22;20181;-76
2022/04/19 08:13:11;;;;;;;1.93;1.80;;;;;;;8.89;55.50;91851.22;6215880;22;20515;-75
2022/04/19 08:15:38;;;;;;;2.20;1.20;;;;;;;9.12;53.42;91884.47;6215525;22;20471;-75
2022/04/19 08:18:06;;;;;;;1.30;1.30;;;;;;;9.33;54.73;91872.50;6216130;22;20526;-75
2022/04/19 08:20:33;;;;;;;1.10;1.10;;;;;;;9.56;52.72;91899.09;6215720;22;20554;-75
2022/04/19 08:23:03;;;;;;;2.73;2.63;;;;;;;10.12;53.93;91886.06;6215948;22;20521;-74
2022/04/19 08:25:32;;;;;;;9.50;8.63;;;;;;;9.40;53.69;91876.34;6215573;22;20459;-76
2022/04/19 08:28:00;;;;;;;2.10;2.10;;;;;;;9.71;53.04;91893.25;6215431;22;20472;-74
2022/04/19 08:30:27;;;;;;;2.27;2.17;;;;;;;9.68;55.36;91869.91;6214585;22;20154;-76
2022/04/19 08:32:55;;;;;;;8.43;7.43;;;;;;;9.80;54.04;91879.38;6214028;22;20637;-76
2022/04/19 08:35:22;;;;;;;4.07;3.77;;;;;;;9.82;54.53;91873.34;6211436;22;20435;-75
2022/04/19 08:37:49;;;;;;;2.47;2.20;;;;;;;9.81;54.39;91875.94;6214357;22;20166;-76
2022/04/19 08:40:20;;;;;;;2.30;2.20;;;;;;;10.15;54.28;91872.47;6214221;22;20568;-76
2022/04/19 08:42:48;;;;;;;16.57;6.60;;;;;;;10.02;53.10;91879.88;6214984;22;20503;-76
2022/04/19 08:45:19;;;;;;;10.23;7.93;;;;;;;9.75;53.49;91881.28;6215835;22;20510;-76
2022/04/19 08:47:48;;;;;;;43.73;17.77;;;;;;;9.83;53.65;91877.50;6215044;22;20426;-76
2022/04/19 08:50:18;;;;;;;8.43;7.00;;;;;;;10.01;53.66;91873.19;6215349;22;20458;-75
2022/04/19 08:52:47;;;;;;;1.10;1.10;;;;;;;10.28;53.72;91868.44;6214671;22;20565;-76
2022/04/19 08:58:00;;;;;;;3.53;3.23;;;;;;;11.00;52.50;91870.34;6215462;22;20422;-75
2022/04/19 09:00:28;;;;;;;2.60;2.50;;;;;;;10.80;50.06;91899.25;6214959;22;20618;-76
2022/04/19 09:02:58;;;;;;;1.30;1.30;;;;;;;10.85;50.07;91899.81;6215199;22;20193;-75
2022/04/19 09:05:27;;;;;;;1.77;1.47;;;;;;;10.78;47.92;91922.06;6215543;22;20462;-73
2022/04/19 09:07:57;;;;;;;0.70;0.70;;;;;;;10.42;47.59;91913.16;6215400;22;20488;-75
2022/04/19 09:10:29;;;;;;;1.47;1.43;;;;;;;10.82;47.76;91903.31;6215493;22;20389;-74
2022/04/19 09:13:04;;;;;;;7.10;0.93;;;;;;;11.20;46.49;91902.91;6214304;22;20154;-73
2022/04/19 09:15:35;;;;;;;2.03;1.93;;;;;;;11.38;47.75;91894.25;6215462;22;20440;-74
2022/04/19 09:18:03;;;;;;;1.90;1.80;;;;;;;11.32;47.91;91881.97;6215127;22;20525;-74
2022/04/19 09:20:31;;;;;;;1.27;1.27;;;;;;;11.80;49.59;91870.75;6215063;22;20418;-72
2022/04/19 09:23:04;;;;;;;1.87;1.77;;;;;;;12.10;45.68;91912.84;6212846;22;20647;-71
2022/04/19 09:25:32;;;;;;;1.77;1.73;;;;;;;10.74;48.12;91894.53;6212965;22;20506;-71
2022/04/19 09:28:03;;;;;;;1.37;1.20;;;;;;;11.02;47.76;91902.22;6212388;22;20472;-71
2022/04/19 09:30:32;;;;;;;1.60;1.50;;;;;;;11.29;50.43;91871.22;6214819;22;20506;-71
2022/04/19 09:33:05;;;;;;;1.07;1.07;;;;;;;11.26;47.00;91899.22;6215073;22;20592;-71
2022/04/19 09:35:33;;;;;;;1.67;1.57;;;;;;;10.96;49.51;91887.38;6216000;22;20533;-71
2022/04/19 09:38:01;;;;;;;1.77;1.77;;;;;;;11.01;50.90;91874.50;6215507;22;20427;-72
2022/04/19 09:40:29;;;;;;;2.40;2.30;;;;;;;11.00;52.15;91855.16;6215078;22;20464;-72
2022/04/19 09:42:57;;;;;;;2.70;2.50;;;;;;;10.99;51.23;91876.28;6215528;22;20726;-73
2022/04/19 09:45:28;;;;;;;2.27;2.07;;;;;;;11.35;48.79;91898.69;6215453;22;20546;-72
2022/04/19 09:47:55;;;;;;;2.60;2.50;;;;;;;10.87;50.11;91884.56;6214728;22;20542;-74
2022/04/19 09:50:24;;;;;;;1.17;1.00;;;;;;;10.65;51.15;91875.63;6215156;22;20588;-73
2022/04/19 09:52:52;;;;;;;2.80;2.60;;;;;;;10.52;51.90;91881.44;6214719;22;20483;-73
2022/04/19 09:55:20;;;;;;;8.90;5.83;;;;;;;10.05;55.20;91853.66;6215400;22;20486;-73
2022/04/19 09:57:48;;;;;;;6.93;5.50;;;;;;;10.08;53.43;91877.03;6214541;22;20471;-74
2022/04/19 10:00:17;;;;;;;6.10;5.47;;;;;;;10.25;54.57;91859.28;6214411;22;20559;-73
2022/04/19 10:08:25;;;;;;;10.30;5.20;;;;;;;10.55;52.27;91879.56;6215455;22;20227;-76
2022/04/19 10:10:56;;;;;;;4.70;4.30;;;;;;;10.74;49.95;91897.88;6215175;22;20405;-75
2022/04/19 10:13:24;;;;;;;29.60;12.47;;;;;;;10.98;49.95;91884.78;6215594;22;20158;-75
2022/04/19 10:15:52;;;;;;;1.00;1.00;;;;;;;10.86;48.81;91898.09;6213354;22;20554;-76
2022/04/19 10:18:21;;;;;;;3.20;2.87;;;;;;;11.20;48.45;91897.84;6212635;22;20594;-76
2022/04/19 10:20:55;;;;;;;7.90;6.57;;;;;;;12.03;46.86;91902.28;6214461;22;20650;-76
2022/04/19 10:23:41;;;;;;;2.33;2.23;;;;;;;13.20;42.60;91933.88;6214918;22;20537;-76
2022/04/19 10:26:16;;;;;;;2.83;2.70;;;;;;;13.84;41.18;91951.75;6215012;22;20507;-75
2022/04/19 10:28:45;;;;;;;8.97;6.50;;;;;;;13.29;44.82;91917.25;6214793;22;20413;-76
2022/04/19 10:31:13;;;;;;;2.70;2.60;;;;;;;13.09;44.98;91910.06;6215960;22;20252;-75
2022/04/19 10:33:51;;;;;;;5.53;5.00;;;;;;;13.38;45.83;91893.81;6216828;22;20528;-75
2022/04/19 10:36:21;;;;;;;1.43;1.33;;;;;;;12.47;45.84;91892.00;6216981;22;20499;-74
2022/04/19 10:39:25;;;;;;;17.93;7.40;;;;;;;12.31;46.30;91897.19;6216864;22;20405;-75
2022/04/19 10:41:56;;;;;;;5.00;2.30;;;;;;;11.98;47.66;91873.91;6217089;22;20212;-76
2022/04/19 10:44:28;;;;;;;3.83;2.93;;;;;;;12.44;48.69;91877.00;6216698;22;20446;-75
2022/04/19 10:47:13;;;;;;;3.77;3.57;;;;;;;12.64;48.43;91879.09;6216376;22;20385;-75
2022/04/19 10:50:01;;;;;;;2.00;1.90;;;;;;;12.62;47.01;91877.56;6216425;22;20507;-72
2022/04/19 10:52:51;;;;;;;2.17;2.07;;;;;;;14.07;43.22;91915.47;6216498;22;20542;-73
2022/04/19 10:55:24;;;;;;;1.60;1.57;;;;;;;14.56;40.61;91938.41;6216670;22;20528;-75
2022/04/19 10:58:12;;;;;;;4.10;3.87;;;;;;;14.85;39.06;91944.84;6216299;22;20466;-74
2022/04/19 11:00:51;;;;;;;2.53;2.43;;;;;;;15.66;38.10;91939.09;6216759;22;20444;-75
2022/04/19 11:03:20;;;;;;;4.00;2.90;;;;;;;15.59;39.77;91935.34;6216310;22;20554;-72
2022/04/19 11:05:50;;;;;;;5.73;2.50;;;;;;;15.80;40.23;91945.69;6215222;22;20380;-72
2022/04/19 11:08:38;;;;;;;3.73;3.53;;;;;;;16.07;40.30;91943.66;6216447;22;20514;-73
2022/04/19 11:11:24;;;;;;;1.53;1.43;;;;;;;15.38;39.79;91934.34;6216865;22;20555;-73
2022/04/19 11:14:23;;;;;;;2.40;2.30;;;;;;;15.31;39.42;91944.94;6216624;22;20555;-72
2022/04/19 11:16:53;;;;;;;7.47;6.77;;;;;;;14.55;41.80;91918.97;6215496;22;20510;-74
2022/04/19 11:19:23;;;;;;;6.90;5.67;;;;;;;14.29;44.04;91907.22;6216922;22;20382;-75
2022/04/19 11:21:58;;;;;;;12.07;5.23;;;;;;;13.95;44.00;91888.38;6212637;22;20562;-76
2022/04/19 11:25:00;;;;;;;7.53;5.37;;;;;;;14.57;42.97;91923.97;6212752;22;20176;-74
2022/04/19 11:28:01;;;;;;;5.67;5.17;;;;;;;14.29;42.66;91922.47;6214651;22;20514;-76
2022/04/19 11:30:28;;;;;;;10.83;7.93;;;;;;;13.69;42.58;91926.44;6215601;22;20598;-73
2022/04/19 11:32:58;;;;;;;5.00;4.50;;;;;;;13.25;42.28;91924.25;6215091;22;20421;-73
2022/04/19 11:35:29;;;;;;;1.77;1.67;;;;;;;12.98;41.94;91905.66;6215133;22;20541;-75
2022/04/19 11:37:57;;;;;;;1.60;1.60;;;;;;;12.65;43.29;91898.47;6215657;22;20441;-74
2022/04/19 11:48:47;;;;;;;3.37;1.83;;;;;;;12.44;43.19;91880.34;6216237;22;20230;-74
2022/04/19 11:51:15;;;;;;;1.63;1.53;;;;;;;12.09;43.15;91846.22;6216064;22;20362;-76
2022/04/19 11:53:44;;;;;;;2.90;2.50;;;;;;;12.34;42.31;91921.50;6216372;22;20527;-75
2022/04/19 11:56:11;;;;;;;8.50;3.80;;;;;;;12.21;42.13;91939.16;6216161;22;20614;-75
2022/04/19 11:58:41;;;;;;;3.83;3.53;;;;;;;12.13;44.53;91900.81;6215973;22;20534;-76
2022/04/19 12:01:10;;;;;;;2.23;2.00;;;;;;;11.93;43.66;91921.47;6216032;22;20562;-75
2022/04/19 12:03:40;;;;;;;2.73;2.63;;;;;;;11.71;45.64;91883.91;6216548;22;20526;-75
2022/04/19 12:06:08;;;;;;;2.73;2.63;;;;;;;11.66;45.69;91885.91;6215870;22;20530;-77
2022/04/19 12:08:37;;;;;;;2.30;2.20;;;;;;;11.36;45.03;91822.75;6216016;22;20153;-76
2022/04/19 12:11:08;;;;;;;3.47;3.17;;;;;;;11.83;48.44;91865.47;6216588;22;20461;-77
2022/04/19 12:13:36;;;;;;;4.37;3.97;;;;;;;12.08;48.57;91842.06;6215499;22;20443;-75
2022/04/19 12:16:06;;;;;;;2.37;2.27;;;;;;;12.42;46.21;91830.66;6215558;22;20460;-75
2022/04/19 12:18:35;;;;;;;3.43;3.23;;;;;;;12.97;47.06;91858.41;6215055;22;20176;-76
2022/04/19 12:21:04;;;;;;;2.83;2.63;;;;;;;13.09;48.54;91844.94;6212956;22;20166;-76
2022/04/19 12:23:40;;;;;;;3.97;3.57;;;;;;;13.26;46.56;91854.03;6211573;22;20176;-76
2022/04/19 12:26:12;;;;;;;2.53;2.33;;;;;;;13.41;45.35;91860.63;6214291;22;20409;-76
2022/04/19 12:28:44;;;;;;;2.37;2.27;;;;;;;13.26;44.52;91864.19;6213914;22;20599;-76
2022/04/19 12:31:33;;;;;;;2.10;2.00;;;;;;;13.76;42.75;91868.47;6215040;22;20189;-75